createdAt,value
2022-12-15T05:33:35.274Z,99467.91
2022-12-15T05:36:49.303Z,99475.03
2022-12-15T05:40:03.117Z,99478.59
2022-12-15T05:43:21.628Z,99492.38
2022-12-15T05:46:38.645Z,99499.13
2022-12-15T05:49:53.578Z,99492.03
2022-12-15T05:53:07.267Z,99474.59
2022-12-15T05:56:21.150Z,99483.72
2022-12-15T05:59:35.051Z,99491.94
2022-12-15T06:02:49.853Z,99509.59
2022-12-15T06:06:05.814Z,99520.94
2022-12-15T06:09:19.603Z,99539.06
2022-12-15T06:12:33.433Z,99543.37
2022-12-15T06:15:56.073Z,99552.06
2022-12-15T06:19:09.967Z,99561.72
2022-12-15T06:22:25.246Z,99576.97
2022-12-15T06:25:39.052Z,99579.13
2022-12-15T06:28:53.114Z,99585.53
2022-12-15T06:32:07.085Z,99601.44
2022-12-15T06:35:21.418Z,99611.66
2022-12-15T06:38:36.614Z,99612.66
2022-12-15T06:41:50.449Z,99602.97
2022-12-15T06:45:04.494Z,99597.87
2022-12-15T06:48:18.159Z,99601.12
2022-12-15T06:51:32.363Z,99601.91
2022-12-15T06:54:47.553Z,99604.44
2022-12-15T06:58:01.404Z,99605.16
2022-12-15T07:01:15.714Z,99616.44
2022-12-15T07:04:30.579Z,99624.81
2022-12-15T07:07:45.655Z,99636.69
2022-12-15T07:11:00.925Z,99625.63
2022-12-15T07:14:14.822Z,99631.56
2022-12-15T07:17:28.402Z,99643.25
2022-12-15T07:20:42.082Z,99649.91
2022-12-15T07:23:57.324Z,99655.50
2022-12-15T07:27:13.200Z,99656.84
2022-12-15T07:30:27.112Z,99668.75
2022-12-15T07:33:40.717Z,99667.13
2022-12-15T07:36:54.855Z,99680.06
2022-12-15T07:40:10.020Z,99677.19
2022-12-15T07:43:25.211Z,99691.94
2022-12-15T07:46:39.195Z,99701.31
2022-12-15T07:49:53.361Z,99702.66
2022-12-15T07:53:07.137Z,99684.25
2022-12-15T07:56:21.179Z,99688.59
2022-12-15T07:59:36.054Z,99703.19
2022-12-15T08:02:50.101Z,99700.62
2022-12-15T08:06:05.581Z,99687.06
2022-12-15T08:09:20.249Z,99688.13
2022-12-15T08:12:34.101Z,99699.22
2022-12-15T08:15:49.386Z,99702.97
2022-12-15T08:19:03.581Z,99714.84
2022-12-15T08:22:17.393Z,99713.50
2022-12-15T08:25:31.173Z,99718.37
2022-12-15T08:28:45.012Z,99715.12
2022-12-15T08:32:00.334Z,99729.06
2022-12-15T08:35:38.947Z,99728.38
2022-12-15T08:38:52.181Z,99735.88
2022-12-15T08:42:06.156Z,99748.56
2022-12-15T08:45:19.919Z,99750.37
2022-12-15T08:48:35.425Z,99747.91
2022-12-15T08:51:50.148Z,99748.91
2022-12-15T08:55:04.485Z,99732.19
2022-12-15T08:58:18.304Z,99732.41
2022-12-15T09:01:32.972Z,99731.09
2022-12-15T09:04:48.561Z,99735.50
2022-12-15T09:08:06.539Z,99749.53
2022-12-15T09:11:20.748Z,99756.28
2022-12-15T09:14:34.666Z,99753.97
2022-12-15T09:17:48.345Z,99758.13
2022-12-15T09:21:04.277Z,99761.31
2022-12-15T09:24:27.424Z,99767.41
2022-12-15T09:27:43.086Z,99763.16
2022-12-15T09:31:00.391Z,99750.37
2022-12-15T09:34:15.074Z,99750.34
2022-12-15T09:37:30.991Z,99759.25
2022-12-15T09:40:44.777Z,99751.28
2022-12-15T09:44:04.653Z,99749.53
2022-12-15T09:47:20.355Z,99752.75
2022-12-15T09:50:36.194Z,99746.25
2022-12-15T09:53:55.796Z,99746.47
2022-12-15T09:57:13.375Z,99740.59
2022-12-15T10:00:29.436Z,99737.47
2022-12-15T10:03:49.817Z,99741.50
2022-12-15T10:07:07.227Z,99741.53
2022-12-15T10:10:25.318Z,99739.97
2022-12-15T10:13:42.002Z,99748.03
2022-12-15T10:17:02.526Z,99749.28
2022-12-15T10:20:18.941Z,99744.16
2022-12-15T10:23:34.798Z,99743.84
2022-12-15T10:26:55.548Z,99742.56
2022-12-15T10:30:10.795Z,99730.00
2022-12-15T10:33:25.096Z,99740.50
2022-12-15T10:36:39.009Z,99751.44
2022-12-15T10:39:52.754Z,99739.38
2022-12-15T10:43:09.437Z,99749.37
2022-12-15T10:46:24.685Z,99752.38
2022-12-15T10:49:38.781Z,99756.84
2022-12-15T10:52:52.586Z,99761.03
2022-12-15T10:56:07.270Z,99740.47
2022-12-15T10:59:26.154Z,99733.22
2022-12-15T11:02:42.276Z,99732.69
2022-12-15T11:05:57.240Z,99718.28
2022-12-15T11:09:28.194Z,99724.84
2022-12-15T11:13:01.966Z,99734.78
2022-12-15T11:16:17.740Z,99735.03
2022-12-15T11:19:35.169Z,99738.97
2022-12-15T11:22:51.785Z,99730.75
2022-12-15T11:29:56.667Z,99731.75
2022-12-15T11:33:12.090Z,99730.41
2022-12-15T11:36:44.780Z,99729.75
2022-12-15T11:40:05.424Z,99728.94
2022-12-15T11:47:31.536Z,99737.91
2022-12-15T11:50:53.592Z,99748.19
2022-12-15T11:54:21.047Z,99746.50
2022-12-15T11:57:46.438Z,99747.72
2022-12-15T12:01:07.923Z,99740.91
2022-12-15T12:04:23.242Z,99746.53
2022-12-15T12:07:42.517Z,99743.81
2022-12-15T12:11:00.156Z,99749.25
2022-12-15T12:14:24.249Z,99757.06
2022-12-15T12:17:45.788Z,99763.69
2022-12-15T12:21:01.396Z,99759.81
2022-12-15T12:24:19.717Z,99750.09
2022-12-15T12:27:37.655Z,99740.75
2022-12-15T12:30:51.504Z,99735.47
2022-12-15T12:34:10.189Z,99728.84
2022-12-15T12:37:26.043Z,99725.25
2022-12-15T12:40:49.791Z,99718.63
2022-12-15T12:44:05.432Z,99722.03
2022-12-15T12:47:22.514Z,99727.31
2022-12-15T12:50:36.323Z,99712.84
2022-12-15T12:53:50.275Z,99734.41
2022-12-15T12:57:24.613Z,99741.41
2022-12-15T13:00:38.696Z,99740.34
2022-12-15T13:04:09.105Z,99741.06
2022-12-15T13:07:30.143Z,99743.13
2022-12-15T13:10:44.758Z,99753.00
2022-12-15T13:14:03.630Z,99761.31
2022-12-15T13:17:29.615Z,99768.81
2022-12-15T13:20:43.605Z,99765.75
2022-12-15T13:23:59.710Z,99766.06
2022-12-15T13:27:15.518Z,99779.00
2022-12-15T13:30:30.988Z,99788.34
2022-12-15T13:33:46.426Z,99787.97
2022-12-15T13:37:02.748Z,99773.00
2022-12-15T13:40:26.532Z,99777.41
2022-12-15T13:43:43.878Z,99785.72
2022-12-15T13:47:07.683Z,99787.22
2022-12-15T13:50:29.995Z,99779.72
2022-12-15T13:53:44.809Z,99779.06
2022-12-15T13:57:05.964Z,99784.25
2022-12-15T14:00:20.238Z,99773.47
2022-12-15T14:03:35.991Z,99776.66
2022-12-15T14:06:52.067Z,99776.06
2022-12-15T14:10:06.592Z,99782.56
2022-12-15T14:13:22.316Z,99778.16
2022-12-15T14:16:36.465Z,99775.31
2022-12-15T14:19:51.764Z,99768.84
2022-12-15T14:23:14.244Z,99762.66
2022-12-15T14:26:30.934Z,99755.78
2022-12-15T14:29:44.931Z,99773.09
2022-12-15T14:32:59.314Z,99771.81
2022-12-15T14:36:15.098Z,99752.09
2022-12-15T14:39:31.286Z,99753.94
2022-12-15T14:42:45.097Z,99754.50
2022-12-15T14:46:07.703Z,99773.09
2022-12-15T14:49:22.826Z,99775.56
2022-12-15T14:52:39.186Z,99794.97
2022-12-15T14:55:53.016Z,99773.44
2022-12-15T14:59:19.255Z,99775.75
2022-12-15T15:02:33.128Z,99787.81
2022-12-15T15:03:10.012Z,99733.66
2022-12-15T15:03:11.382Z,99722.62
2022-12-15T15:05:46.819Z,99798.91
2022-12-15T15:09:12.850Z,99806.56
2022-12-15T15:12:28.934Z,99795.34
2022-12-15T15:15:42.849Z,99818.44
2022-12-15T15:18:56.469Z,99785.50
2022-12-15T15:22:20.163Z,99805.31
2022-12-15T15:25:40.269Z,99805.16
2022-12-15T15:28:54.932Z,99813.81
2022-12-15T15:32:15.985Z,99806.78
2022-12-15T15:35:31.467Z,99798.69
2022-12-15T15:38:47.375Z,99792.84
2022-12-15T15:42:11.670Z,99789.78
2022-12-15T15:45:25.576Z,99792.16
2022-12-15T15:48:39.675Z,99789.84
2022-12-15T15:51:53.588Z,99774.84
2022-12-15T15:55:07.690Z,99765.94
2022-12-15T15:58:22.933Z,99774.44
2022-12-15T16:01:36.980Z,99768.69
2022-12-15T16:04:51.031Z,99780.75
2022-12-15T16:08:05.089Z,99783.19
2022-12-15T16:11:18.564Z,99775.81
2022-12-15T16:14:36.411Z,99765.47
2022-12-15T16:17:50.320Z,99758.66
2022-12-15T16:21:04.179Z,99771.09
